createdAt,value
2023-05-19T00:00:09.921Z,28.1920
2023-05-19T00:01:11.392Z,25.9274
2023-05-19T00:02:12.748Z,26.2671
2023-05-19T00:03:15.143Z,28.2481
2023-05-19T00:04:16.556Z,25.1190
2023-05-19T00:05:17.988Z,26.3701
2023-05-19T00:06:19.386Z,25.1736
2023-05-19T00:07:20.761Z,29.2151
2023-05-19T00:08:22.131Z,27.2215
2023-05-19T00:09:23.417Z,27.9995
2023-05-19T00:10:24.803Z,27.3845
2023-05-19T00:11:26.260Z,27.0574
2023-05-19T00:12:27.655Z,24.4882
2023-05-19T00:13:28.961Z,27.9839
2023-05-19T00:14:30.381Z,28.4003
2023-05-19T00:15:31.713Z,28.0513
2023-05-19T00:16:33.404Z,25.9869
2023-05-19T00:17:35.989Z,28.7467
2023-05-19T00:18:37.425Z,27.1791
2023-05-19T00:19:39.002Z,28.1782
2023-05-19T00:20:40.388Z,25.3800
2023-05-19T00:21:41.641Z,25.7386
2023-05-19T00:22:42.910Z,29.0096
2023-05-19T00:23:44.379Z,25.8524
2023-05-19T00:24:46.523Z,29.0806
2023-05-19T00:25:47.859Z,26.4468
2023-05-19T00:26:49.131Z,24.7410
2023-05-19T00:27:50.631Z,25.9648
2023-05-19T00:28:52.858Z,26.7347
2023-05-19T00:30:11.527Z,29.8765
2023-05-19T00:30:54.866Z,28.1583
2023-05-19T00:31:56.244Z,26.6889
2023-05-19T00:32:57.609Z,28.5558
2023-05-19T00:33:58.944Z,27.2941
2023-05-19T00:35:00.354Z,26.4244
2023-05-19T00:36:02.354Z,28.0287
2023-05-19T00:37:03.805Z,25.5598
2023-05-19T00:38:05.102Z,26.9165
2023-05-19T00:39:06.424Z,27.8695
2023-05-19T00:40:07.812Z,28.0313
2023-05-19T00:41:10.451Z,27.5088
2023-05-19T00:42:11.961Z,27.0829
2023-05-19T00:43:13.256Z,29.5191
2023-05-19T00:44:16.358Z,27.2635
2023-05-19T00:45:17.961Z,26.5178
2023-05-19T00:46:19.388Z,30.3133
2023-05-19T00:47:20.764Z,25.6591
2023-05-19T00:48:22.101Z,26.5856
2023-05-19T00:49:23.706Z,27.7618
2023-05-19T00:50:25.123Z,28.7566
2023-05-19T00:51:26.502Z,27.2160
2023-05-19T00:52:27.728Z,27.5600
2023-05-19T00:53:29.009Z,27.1918
2023-05-19T00:54:30.410Z,27.5307
2023-05-19T00:55:32.707Z,25.5454
2023-05-19T00:56:34.020Z,26.1985
2023-05-19T00:57:35.299Z,25.4423
2023-05-19T00:58:36.631Z,26.6604
2023-05-19T00:59:38.323Z,24.3439
2023-05-19T01:00:39.800Z,24.5258
2023-05-19T01:01:41.209Z,25.7287
2023-05-19T01:02:42.611Z,26.6406
2023-05-19T01:03:44.025Z,25.1178
2023-05-19T01:04:45.949Z,26.0228
2023-05-19T01:05:47.336Z,26.6717
2023-05-19T01:06:48.789Z,24.8588
2023-05-19T01:07:51.219Z,26.6010
2023-05-19T01:08:52.765Z,24.7942
2023-05-19T01:09:55.050Z,26.5724
2023-05-19T01:10:56.441Z,27.1655
2023-05-19T01:11:57.902Z,25.9456
2023-05-19T01:12:59.334Z,25.7479
2023-05-19T01:14:00.600Z,25.5404
2023-05-19T01:15:02.009Z,24.7241
2023-05-19T01:16:03.663Z,25.0945
2023-05-19T01:17:05.057Z,23.8977
2023-05-19T01:18:06.740Z,24.4043
2023-05-19T01:19:08.332Z,22.9383
2023-05-19T01:20:09.906Z,26.2314
2023-05-19T01:21:11.235Z,24.3189
2023-05-19T01:22:12.650Z,27.1923
2023-05-19T01:23:15.072Z,23.1786
2023-05-19T01:24:16.427Z,25.8859
2023-05-19T01:25:18.725Z,25.9187
2023-05-19T01:26:20.052Z,25.7799
2023-05-19T01:27:21.324Z,25.8655
2023-05-19T01:28:22.623Z,24.9707
2023-05-19T01:30:26.862Z,22.0673
2023-05-19T01:31:28.382Z,26.2388
2023-05-19T01:32:29.665Z,26.8575
2023-05-19T01:33:30.986Z,22.9706
2023-05-19T01:34:32.196Z,22.9982
2023-05-19T02:51:03.167Z,24.8175
2023-05-19T02:51:03.167Z,22.4937
2023-05-19T02:51:03.167Z,28.5892
2023-05-19T02:52:04.873Z,24.3593
2023-05-19T02:53:06.155Z,24.8436
2023-05-19T02:54:07.588Z,24.0477
2023-05-19T02:55:08.878Z,25.4440
2023-05-19T02:56:10.240Z,25.4504
2023-05-19T02:57:11.596Z,24.4909
2023-05-19T02:58:12.910Z,25.2276
2023-05-19T02:59:14.214Z,23.6077
2023-05-19T03:00:15.504Z,23.1817
2023-05-19T03:01:16.890Z,25.5022
2023-05-19T03:02:18.251Z,27.3176
2023-05-19T03:03:19.684Z,25.5832
2023-05-19T03:04:22.122Z,27.6612
2023-05-19T03:05:23.427Z,25.7343
2023-05-19T03:06:24.741Z,27.5438
2023-05-19T03:07:26.154Z,25.0139
2023-05-19T03:08:27.462Z,23.9168
2023-05-19T03:09:28.809Z,25.1146
2023-05-19T03:10:30.586Z,25.3916
2023-05-19T03:11:32.948Z,24.7250
2023-05-19T03:12:34.256Z,24.5173
2023-05-19T03:13:36.505Z,25.5012
2023-05-19T03:14:37.906Z,24.8045
2023-05-19T03:15:39.203Z,23.9799
2023-05-19T03:16:40.780Z,24.3940
2023-05-19T03:17:42.359Z,27.5864
2023-05-19T03:18:44.813Z,27.0138
2023-05-19T03:19:46.208Z,24.7776
2023-05-19T03:20:47.514Z,24.2595
2023-05-19T03:22:50.112Z,25.2249
2023-05-19T03:23:51.364Z,25.8645
2023-05-19T03:24:53.290Z,27.9901
2023-05-19T03:25:54.584Z,26.2938
2023-05-19T03:26:55.946Z,26.1995
2023-05-19T03:27:57.220Z,23.9505
2023-05-19T03:28:58.584Z,28.1352
2023-05-19T03:30:01.072Z,27.7163
2023-05-19T03:31:02.522Z,27.1796
2023-05-19T03:32:03.834Z,27.1717
2023-05-19T03:33:05.455Z,30.4278
2023-05-19T03:34:07.800Z,28.3657
2023-05-19T03:35:09.216Z,26.1028
2023-05-19T03:36:10.523Z,29.0857
2023-05-19T03:37:11.864Z,28.3759
2023-05-19T03:38:13.164Z,26.0458
2023-05-19T03:39:14.509Z,27.4754
2023-05-19T03:40:15.997Z,26.3696
2023-05-19T03:41:17.269Z,30.3050
2023-05-19T03:42:18.787Z,27.9661
2023-05-19T03:43:20.107Z,26.0896
2023-05-19T03:44:22.459Z,26.3834
2023-05-19T03:45:23.764Z,26.1440
2023-05-19T03:46:25.070Z,25.3886
2023-05-19T03:47:26.358Z,27.3241
2023-05-19T03:48:27.682Z,28.9655
2023-05-19T03:49:29.027Z,26.9711
2023-05-19T03:50:30.611Z,26.8762
2023-05-19T03:51:32.100Z,25.9620
2023-05-19T03:52:33.440Z,28.6117
2023-05-19T03:53:34.776Z,28.4754
2023-05-19T03:54:36.119Z,28.0786
2023-05-19T03:55:37.443Z,31.2569
2023-05-19T03:56:38.817Z,28.3014
2023-05-19T03:57:40.197Z,30.4143
2023-05-19T03:58:42.207Z,28.2959
2023-05-19T03:59:43.572Z,29.3354
2023-05-19T04:00:44.928Z,28.2365
2023-05-19T04:01:46.244Z,29.6881
2023-05-19T04:02:47.812Z,28.6044
2023-05-19T04:03:49.191Z,31.6251
2023-05-19T04:04:50.750Z,32.7430
2023-05-19T04:05:52.292Z,30.0048
2023-05-19T04:06:53.552Z,30.5196
2023-05-19T04:07:54.941Z,29.8944
2023-05-19T04:08:56.397Z,29.2384
2023-05-19T04:09:57.751Z,31.9209
2023-05-19T04:10:59.126Z,28.1294
2023-05-19T04:12:00.454Z,28.5378
2023-05-19T04:13:01.841Z,30.1592
2023-05-19T04:14:03.148Z,29.1469
2023-05-19T04:15:04.573Z,28.6660
2023-05-19T04:16:06.910Z,27.6438
2023-05-19T04:17:08.259Z,27.4430
2023-05-19T04:18:09.718Z,28.4682
2023-05-19T04:19:12.164Z,28.3620
2023-05-19T04:20:13.550Z,28.0599
2023-05-19T04:21:14.953Z,29.3469
2023-05-19T04:22:16.224Z,28.6300
2023-05-19T04:23:17.668Z,28.4883
2023-05-19T04:24:18.917Z,30.0207
2023-05-19T04:25:20.325Z,26.5040
2023-05-19T04:26:21.694Z,27.9128
2023-05-19T04:27:23.002Z,26.3144
2023-05-19T04:28:24.401Z,26.0262
2023-05-19T04:29:25.730Z,27.3382
2023-05-19T04:30:27.096Z,26.0183
2023-05-19T04:31:28.426Z,26.5738
2023-05-19T04:32:29.854Z,29.2057
2023-05-19T04:33:31.128Z,30.6289
2023-05-19T04:34:32.517Z,29.4525
2023-05-19T04:35:33.883Z,31.0462
2023-05-19T04:36:35.325Z,28.2169
2023-05-19T04:37:36.630Z,30.7475
2023-05-19T04:38:37.986Z,27.5847
2023-05-19T05:27:53.554Z,30.1638
2023-05-19T05:27:53.554Z,23.5638
2023-05-19T05:27:53.554Z,29.2131
2023-05-19T05:28:25.470Z,27.1329
2023-05-19T05:29:26.872Z,28.7661
2023-05-19T05:30:28.144Z,28.7326
2023-05-19T05:31:29.558Z,30.1148
2023-05-19T05:32:30.912Z,28.1062
2023-05-19T05:33:32.257Z,28.7907
2023-05-19T05:34:34.628Z,29.0124
2023-05-19T05:35:36.013Z,27.3061
2023-05-19T05:36:37.299Z,29.7604
2023-05-19T05:37:38.699Z,30.5359
2023-05-19T05:38:39.974Z,28.9960
2023-05-19T05:39:41.342Z,28.8031
2023-05-19T05:40:42.649Z,30.7794
2023-05-19T05:41:44.079Z,25.2362
2023-05-19T05:42:45.345Z,25.7068
2023-05-19T05:43:46.717Z,28.5513
2023-05-19T05:44:48.007Z,28.2103
2023-05-19T05:45:49.398Z,29.5387
2023-05-19T05:46:50.653Z,28.7532
2023-05-19T05:47:52.041Z,27.2962
2023-05-19T05:48:53.314Z,29.0898
2023-05-19T05:49:54.608Z,27.4654
2023-05-19T05:50:55.937Z,32.0797
2023-05-19T05:52:05.792Z,32.2538
2023-05-19T05:52:57.976Z,29.3868
2023-05-19T05:53:59.239Z,27.9025
2023-05-19T05:55:00.541Z,29.8135
2023-05-19T05:56:01.851Z,26.8566
2023-05-19T05:57:03.206Z,29.4838
2023-05-19T05:58:04.532Z,31.7126
2023-05-19T05:59:05.828Z,31.2611
2023-05-19T06:00:07.111Z,27.7006
2023-05-19T06:01:08.442Z,32.5651
2023-05-19T06:02:09.791Z,31.7400
2023-05-19T06:03:11.232Z,33.2355
2023-05-19T06:04:12.663Z,30.7626
2023-05-19T06:05:14.035Z,31.5718
2023-05-19T06:06:15.358Z,30.6678
2023-05-19T06:07:16.717Z,32.3866
2023-05-19T06:08:18.025Z,34.3511
2023-05-19T06:09:19.398Z,34.6428
2023-05-19T06:10:20.772Z,33.0529
2023-05-19T06:11:22.062Z,31.7856
2023-05-19T06:12:23.410Z,35.9569
2023-05-19T06:13:24.765Z,33.4313
2023-05-19T06:14:25.998Z,35.5640
2023-05-19T06:16:27.935Z,33.8768
2023-05-19T06:17:29.376Z,33.4122
2023-05-19T06:18:30.664Z,33.0561
2023-05-19T06:19:32.052Z,35.7736
2023-05-19T06:20:33.425Z,32.6241
2023-05-19T06:21:35.767Z,36.5903
2023-05-19T06:22:37.055Z,36.7369
2023-05-19T06:23:38.423Z,33.4872
2023-05-19T06:24:39.792Z,36.0658
2023-05-19T06:25:41.055Z,36.4759
2023-05-19T06:26:42.326Z,36.6523
2023-05-19T06:27:43.669Z,38.5737
2023-05-19T06:28:44.926Z,37.8896
2023-05-19T06:29:46.285Z,35.7136
2023-05-19T06:30:47.598Z,36.3932
2023-05-19T06:31:48.938Z,38.1402
2023-05-19T06:32:50.359Z,37.0277
2023-05-19T06:33:51.638Z,34.5056
2023-05-19T06:34:53.043Z,34.4271
2023-05-19T06:35:54.349Z,35.8693
2023-05-19T06:36:55.648Z,35.2477
2023-05-19T06:37:56.977Z,36.8537
2023-05-19T06:38:59.242Z,33.6885
2023-05-19T06:39:58.593Z,35.3875
2023-05-19T06:40:59.866Z,37.9487
2023-05-19T06:42:01.173Z,37.4732
2023-05-19T06:43:02.509Z,37.9159
2023-05-19T06:44:03.801Z,39.3594
2023-05-19T06:45:05.133Z,39.0310
2023-05-19T06:46:06.446Z,35.5109
2023-05-19T06:47:07.833Z,40.3755
2023-05-19T06:48:09.315Z,40.0689
2023-05-19T06:49:10.625Z,40.0167
2023-05-19T06:50:11.941Z,38.9119
2023-05-19T06:51:13.226Z,37.7767
2023-05-19T06:52:14.539Z,39.0675
2023-05-19T06:53:15.819Z,37.2001
2023-05-19T06:54:17.127Z,37.5860
2023-05-19T06:55:18.402Z,36.1829
2023-05-19T06:56:19.745Z,40.4999
2023-05-19T06:57:21.043Z,40.2210
2023-05-19T06:58:22.324Z,40.0043
2023-05-19T06:59:23.659Z,39.4184
2023-05-19T07:00:24.952Z,42.7423
2023-05-19T07:01:26.248Z,39.1648
2023-05-19T07:02:27.613Z,40.3890
2023-05-19T07:03:29.041Z,39.6849
2023-05-19T07:04:30.466Z,40.3357
2023-05-19T07:05:31.791Z,44.2419
2023-05-19T07:06:33.077Z,42.7050
2023-05-19T07:07:34.348Z,38.2165
2023-05-19T07:08:35.737Z,37.9604
2023-05-19T07:09:37.046Z,39.4400
2023-05-19T07:10:38.425Z,40.8395
2023-05-19T07:11:39.710Z,39.7132
2023-05-19T07:12:41.089Z,37.9550
2023-05-19T07:13:42.383Z,39.4868
2023-05-19T07:14:43.753Z,40.6533
2023-05-19T07:15:45.093Z,42.3941
2023-05-19T07:16:46.577Z,38.9270
2023-05-19T07:17:48.009Z,37.8783
2023-05-19T07:18:49.318Z,40.8311
2023-05-19T07:19:50.572Z,41.9852
2023-05-19T07:20:51.913Z,40.3097
2023-05-19T07:21:53.250Z,38.3364
2023-05-19T07:22:54.617Z,35.8347
2023-05-19T07:23:55.968Z,40.2980
2023-05-19T07:24:57.329Z,38.9162
2023-05-19T07:25:58.685Z,38.5361
2023-05-19T07:27:00.117Z,41.0995
2023-05-19T07:28:01.399Z,40.5837
2023-05-19T07:29:02.774Z,38.7855
2023-05-19T07:30:04.089Z,39.9276
2023-05-19T07:31:05.413Z,40.3271
2023-05-19T07:32:06.775Z,39.1243
2023-05-19T07:33:08.199Z,37.5899
2023-05-19T07:34:09.512Z,39.4619
2023-05-19T07:35:10.889Z,37.9075
2023-05-19T07:36:12.165Z,43.8983
2023-05-19T07:37:13.523Z,41.9488
2023-05-19T07:38:14.824Z,39.2200
2023-05-19T07:39:16.200Z,39.2299
2023-05-19T07:40:17.473Z,38.6205
2023-05-19T07:41:18.877Z,44.2569
2023-05-19T07:42:20.170Z,39.3978
2023-05-19T07:43:21.539Z,41.6554
2023-05-19T07:44:22.895Z,41.1861
2023-05-19T07:45:24.326Z,43.6318
2023-05-19T07:46:25.763Z,45.8331
2023-05-19T07:47:27.386Z,42.1926
2023-05-19T07:48:28.688Z,43.7471
2023-05-19T07:49:30.094Z,45.4755
2023-05-19T09:46:03.412Z,43.4475
2023-05-19T09:46:03.412Z,41.0701
2023-05-19T09:46:03.412Z,44.1308
2023-05-19T09:46:58.228Z,49.9677
2023-05-19T09:47:59.533Z,53.9041
2023-05-19T09:49:00.809Z,53.9238
2023-05-19T09:50:02.125Z,55.0878
2023-05-19T09:51:03.425Z,54.0842
2023-05-19T09:52:04.750Z,51.6748
2023-05-19T09:53:06.060Z,53.9661
2023-05-19T09:54:07.333Z,52.1076
2023-05-19T09:55:08.681Z,49.6259
2023-05-19T09:56:10.132Z,53.1082
2023-05-19T09:57:11.595Z,52.0758
2023-05-19T09:58:12.886Z,49.1275
2023-05-19T09:59:14.166Z,52.9157
2023-05-19T10:00:15.458Z,55.0377
2023-05-19T10:01:16.812Z,50.3522
2023-05-19T10:02:18.092Z,51.8065
2023-05-19T10:03:19.385Z,53.2457
2023-05-19T10:04:20.705Z,53.3954
2023-05-19T10:05:22.004Z,54.1670
2023-05-19T10:06:23.284Z,52.2309
2023-05-19T10:07:24.666Z,51.2052
2023-05-19T10:08:25.949Z,54.0929
2023-05-19T10:09:27.263Z,49.3886
2023-05-19T10:10:28.592Z,53.6876
2023-05-19T10:11:29.843Z,54.4955
2023-05-19T10:12:31.134Z,52.8244
2023-05-19T10:13:32.478Z,51.8116
2023-05-19T10:14:33.782Z,53.9840
2023-05-19T10:15:40.751Z,53.2291
2023-05-19T10:16:35.854Z,51.9546
2023-05-19T10:17:37.183Z,54.0063
2023-05-19T10:18:39.876Z,55.0447
2023-05-19T10:19:41.508Z,55.2947
2023-05-19T10:20:43.799Z,52.6187
2023-05-19T10:21:45.245Z,55.4655
2023-05-19T10:22:46.601Z,50.8746
2023-05-19T10:23:48.146Z,52.3825
2023-05-19T10:24:50.181Z,55.1169
2023-05-19T10:25:51.834Z,54.1148
2023-05-19T10:26:53.528Z,53.2325
2023-05-19T10:27:55.214Z,51.7182
2023-05-19T10:28:58.246Z,54.6478
2023-05-19T10:30:00.281Z,49.8478
2023-05-19T10:31:03.315Z,56.0577
2023-05-19T10:32:05.141Z,57.6656
2023-05-19T10:33:06.796Z,54.3674
2023-05-19T10:34:09.079Z,49.7069
2023-05-19T10:35:10.710Z,53.8278
2023-05-19T10:36:13.041Z,55.0517
2023-05-19T10:37:14.993Z,53.4377
2023-05-19T10:38:16.785Z,52.6454
2023-05-19T10:39:18.864Z,54.7253
2023-05-19T10:40:20.884Z,54.0929
2023-05-19T10:41:23.828Z,56.2512
2023-05-19T10:42:25.986Z,56.1906
2023-05-19T10:43:29.068Z,56.8041
2023-05-19T10:44:28.769Z,59.1739
2023-05-19T10:45:34.014Z,59.0550
2023-05-19T10:46:32.910Z,55.0210
2023-05-19T10:47:37.325Z,54.3592
2023-05-19T10:48:37.231Z,55.8124
2023-05-19T10:49:38.913Z,58.3717
2023-05-19T10:50:42.433Z,59.8258
2023-05-19T10:51:41.719Z,53.3008
2023-05-19T10:52:44.765Z,56.7640
2023-05-19T10:53:46.682Z,58.1378
2023-05-19T10:54:48.860Z,57.0399
2023-05-19T10:55:52.938Z,53.6721
2023-05-19T10:56:51.739Z,57.4050
2023-05-19T10:57:53.853Z,53.5104
2023-05-19T10:58:57.030Z,55.1546
2023-05-19T10:59:59.287Z,54.9268
2023-05-19T11:01:01.997Z,53.9952
2023-05-19T11:02:03.882Z,54.0829
2023-05-19T11:03:06.884Z,53.9244
2023-05-19T11:04:08.770Z,53.0120
2023-05-19T11:05:11.022Z,53.1136
2023-05-19T11:06:14.285Z,56.2926
2023-05-19T11:07:16.871Z,52.3158
2023-05-19T11:08:19.110Z,53.0758
2023-05-19T11:09:31.112Z,55.2114
2023-05-19T11:10:21.774Z,54.4858
2023-05-19T11:11:24.289Z,56.2162
2023-05-19T11:12:26.538Z,55.1379
2023-05-19T11:13:29.596Z,53.9573
2023-05-19T11:14:32.773Z,57.1272
2023-05-19T11:15:32.517Z,53.4591
2023-05-19T11:16:37.440Z,54.4557
2023-05-19T11:17:36.296Z,51.8005
2023-05-19T11:18:38.500Z,51.5929
2023-05-19T11:19:40.841Z,51.3872
2023-05-19T11:20:45.119Z,54.4244
2023-05-19T11:21:44.239Z,55.3374
2023-05-19T11:22:46.037Z,54.7505
2023-05-19T11:23:48.466Z,55.8403
2023-05-19T11:24:51.275Z,56.0698
2023-05-19T11:25:52.837Z,55.8297
2023-05-19T11:26:55.893Z,56.6485
2023-05-19T11:27:55.183Z,53.6788
2023-05-19T11:28:59.242Z,57.2387
2023-05-19T11:30:00.010Z,52.7723
2023-05-19T11:30:59.334Z,56.3300
2023-05-19T11:31:59.844Z,58.3563
2023-05-19T11:33:02.295Z,57.2452
2023-05-19T11:34:02.499Z,52.8017
2023-05-19T11:35:05.280Z,50.5594
2023-05-19T11:36:08.282Z,54.0789
2023-05-19T11:37:12.255Z,56.7423
2023-05-19T11:38:10.816Z,56.8362
2023-05-19T11:46:26.256Z,52.3366
2023-05-19T11:46:26.256Z,54.9275
2023-05-19T11:46:26.256Z,59.9417
2023-05-19T11:46:57.236Z,56.3030
2023-05-19T11:56:05.118Z,52.8394
2023-05-19T11:56:05.118Z,51.1084
2023-05-19T11:56:05.118Z,47.2658
2023-05-19T11:56:19.585Z,53.8229
2023-05-19T12:02:21.938Z,48.8728
2023-05-19T12:03:13.446Z,50.3462
2023-05-19T12:04:23.745Z,51.0681
2023-05-19T12:05:15.659Z,56.1726
2023-05-19T12:06:14.462Z,55.1817
2023-05-19T12:07:16.959Z,55.4137
2023-05-19T12:08:24.764Z,55.4140
2023-05-19T12:09:32.792Z,55.9072
2023-05-19T12:12:59.459Z,48.1593
2023-05-19T12:41:21.432Z,49.9541
2023-05-19T12:42:22.782Z,57.8829
2023-05-19T12:46:11.964Z,51.6164
2023-05-19T12:46:32.965Z,51.8347
2023-05-19T12:47:45.597Z,54.8799
2023-05-19T12:48:43.070Z,56.7439
2023-05-19T12:49:33.030Z,55.0556
2023-05-19T12:52:00.422Z,55.3551
2023-05-19T12:52:55.155Z,52.5826
2023-05-19T12:53:49.611Z,54.2018
2023-05-19T12:54:58.041Z,61.1399
2023-05-19T12:55:51.520Z,54.4556
2023-05-19T12:56:55.075Z,53.0355
2023-05-19T12:57:45.420Z,55.0792
2023-05-19T12:58:46.356Z,59.1026
2023-05-19T12:59:48.619Z,54.4302
2023-05-19T13:00:50.307Z,55.5998
2023-05-19T13:01:59.526Z,55.9342
2023-05-19T13:02:56.758Z,53.1113
2023-05-19T13:04:06.535Z,53.4583
2023-05-19T13:05:13.768Z,51.3048
2023-05-19T13:06:15.575Z,52.7056
2023-05-19T13:07:12.887Z,54.7794
2023-05-19T13:08:13.144Z,60.0585
2023-05-19T13:09:29.552Z,56.6952
2023-05-19T13:10:15.787Z,54.5728
2023-05-19T13:11:21.176Z,48.9659
2023-05-19T13:12:30.231Z,47.6150
2023-05-19T13:16:51.759Z,49.8895
2023-05-19T13:16:51.759Z,50.7516
2023-05-19T13:17:05.150Z,44.8537
2023-05-19T13:18:20.586Z,55.0962
2023-05-19T13:19:25.482Z,51.5470
2023-05-19T13:20:45.056Z,51.9991
2023-05-19T13:21:25.846Z,52.1230
2023-05-19T13:22:22.395Z,53.4864
2023-05-19T13:24:24.950Z,50.6584
2023-05-19T13:24:49.779Z,49.2961
2023-05-19T13:40:33.199Z,52.3194
2023-05-19T13:41:17.545Z,50.5884
2023-05-19T13:42:18.912Z,73.3833
2023-05-19T13:43:20.293Z,156.9671
2023-05-19T13:44:21.894Z,42.5550
2023-05-19T13:45:23.294Z,48.8193
2023-05-19T13:46:36.513Z,89.0056
2023-05-19T13:47:25.384Z,73.3047
2023-05-19T13:48:26.880Z,46.8476
2023-05-19T13:49:28.361Z,50.5624
2023-05-19T13:50:29.764Z,50.6098
2023-05-19T13:51:31.158Z,49.3245
2023-05-19T13:52:32.564Z,83.3918
2023-05-19T13:53:34.363Z,86.9445
2023-05-19T13:54:35.723Z,69.3193
2023-05-19T13:55:37.183Z,72.1212
2023-05-19T13:56:38.579Z,65.8554
2023-05-19T13:57:40.688Z,50.5261
2023-05-19T13:58:43.052Z,53.2303
2023-05-19T13:59:57.714Z,55.8707
2023-05-19T14:00:45.370Z,54.4004
2023-05-19T14:01:46.956Z,53.7767
2023-05-19T14:02:48.450Z,51.5922
2023-05-19T14:03:50.024Z,52.7952
2023-05-19T14:04:51.599Z,52.8812
2023-05-19T14:05:53.133Z,51.6782
2023-05-19T14:06:55.677Z,45.9470
2023-05-19T14:07:57.131Z,53.1333
2023-05-19T14:08:58.691Z,50.7208
2023-05-19T14:10:00.131Z,50.7811
2023-05-19T14:11:12.632Z,54.7283
2023-05-19T14:12:04.090Z,49.1773
2023-05-19T14:13:30.376Z,56.8418
2023-05-19T14:14:06.361Z,53.0909
2023-05-19T14:15:09.015Z,50.0227
2023-05-19T14:16:10.466Z,49.7926
2023-05-19T14:17:11.786Z,48.4550
2023-05-19T14:18:13.164Z,50.8131
2023-05-19T14:19:14.502Z,51.2986
2023-05-19T14:20:16.958Z,50.8368
2023-05-19T14:21:18.317Z,48.8291
2023-05-19T14:22:20.687Z,48.1292
2023-05-19T14:23:22.048Z,52.1822
2023-05-19T14:24:23.341Z,52.1883
2023-05-19T14:25:24.730Z,48.5982
2023-05-19T14:26:27.403Z,50.4600
2023-05-19T14:27:26.768Z,49.2772
2023-05-19T14:28:28.157Z,49.2814
2023-05-19T14:29:29.467Z,49.9511
2023-05-19T14:30:30.874Z,50.1381
2023-05-19T14:31:32.154Z,49.9484
2023-05-19T14:32:33.534Z,50.8415
2023-05-19T14:33:35.701Z,47.5028
2023-05-19T14:34:37.203Z,53.0160
2023-05-19T14:35:38.751Z,48.0763
2023-05-19T14:36:40.114Z,49.1123
2023-05-19T14:37:41.419Z,47.9488
2023-05-19T14:38:42.844Z,47.1319
2023-05-19T14:39:44.098Z,45.9139
2023-05-19T14:40:45.454Z,43.6463
2023-05-19T14:41:46.819Z,45.0713
2023-05-19T14:42:48.179Z,46.0322
2023-05-19T14:43:49.518Z,41.9867
2023-05-19T14:44:50.830Z,43.7534
2023-05-19T14:45:52.160Z,42.1129
2023-05-19T14:46:53.547Z,45.4407
2023-05-19T14:47:54.927Z,42.3502
2023-05-19T14:48:56.391Z,41.7651
2023-05-19T14:49:57.647Z,39.0652
2023-05-19T14:50:58.981Z,44.2228
2023-05-19T14:52:00.266Z,42.3180
2023-05-19T14:53:01.633Z,41.2908
2023-05-19T14:54:03.008Z,44.4816
2023-05-19T14:55:04.409Z,42.1384
2023-05-19T14:56:06.543Z,42.8976
2023-05-19T14:57:07.827Z,44.3955
2023-05-19T14:58:19.729Z,46.7152
2023-05-19T14:59:09.889Z,40.4315
2023-05-19T15:00:11.182Z,41.4477
2023-05-19T15:01:12.570Z,39.6980
2023-05-19T15:02:13.893Z,40.0265
2023-05-19T15:03:15.311Z,43.1611
2023-05-19T15:04:16.736Z,41.5011
2023-05-19T15:05:18.075Z,39.2465
2023-05-19T15:06:19.465Z,41.5122
2023-05-19T15:07:20.823Z,43.4289
2023-05-19T15:08:22.124Z,40.7701
2023-05-19T15:09:23.477Z,40.1519
2023-05-19T15:10:24.820Z,40.1832
2023-05-19T15:11:26.141Z,39.6106
2023-05-19T15:12:27.435Z,36.4539
2023-05-19T15:13:28.760Z,39.6094
2023-05-19T15:14:31.068Z,36.8042
2023-05-19T15:15:30.341Z,38.8087
2023-05-19T15:16:31.666Z,41.6369
2023-05-19T15:17:32.969Z,38.1537
2023-05-19T15:18:34.241Z,41.4682
2023-05-19T15:19:35.611Z,39.7318
2023-05-19T15:20:36.935Z,37.0626
2023-05-19T15:21:38.220Z,38.0962
2023-05-19T15:22:39.556Z,40.6272
2023-05-19T15:23:40.837Z,38.6225
2023-05-19T15:24:42.208Z,38.3416
2023-05-19T15:25:43.473Z,37.5313
2023-05-19T15:26:44.765Z,42.6176
2023-05-19T15:27:46.091Z,37.6583
2023-05-19T15:28:47.841Z,39.2804
2023-05-19T15:29:49.111Z,38.6974
2023-05-19T15:30:50.455Z,40.2160
2023-05-19T15:31:51.803Z,38.1748
2023-05-19T15:32:53.180Z,38.4603
2023-05-19T15:33:54.497Z,41.1739
2023-05-19T15:34:56.050Z,40.5396
2023-05-19T15:35:57.735Z,37.4514
2023-05-19T15:36:59.020Z,35.9809
2023-05-19T15:38:00.352Z,38.0729
2023-05-19T15:39:01.695Z,39.4631
2023-05-19T15:40:03.984Z,40.3349
2023-05-19T15:41:05.609Z,36.5478
2023-05-19T15:42:06.952Z,39.4569
2023-05-19T15:43:08.205Z,40.1897
2023-05-19T15:44:09.483Z,37.8739
2023-05-19T15:45:10.784Z,43.2443
2023-05-19T15:46:12.072Z,41.5756
2023-05-19T15:47:13.391Z,41.0936
2023-05-19T15:48:14.685Z,46.1137
2023-05-19T15:49:15.935Z,44.1152
2023-05-19T15:50:17.290Z,47.6142
2023-05-19T15:51:18.601Z,46.2823
2023-05-19T15:52:19.864Z,44.8094
2023-05-19T15:53:21.161Z,49.4343
2023-05-19T15:54:22.464Z,52.0276
2023-05-19T15:55:23.756Z,49.7113
2023-05-19T15:56:25.069Z,53.1316
2023-05-19T15:57:26.472Z,52.9734
2023-05-19T15:58:27.751Z,49.1631
2023-05-19T15:59:29.043Z,49.2994
2023-05-19T16:00:30.345Z,50.5498
2023-05-19T16:01:31.655Z,55.0166
2023-05-19T16:02:32.996Z,49.2569
2023-05-19T16:03:34.361Z,49.3061
2023-05-19T16:04:35.739Z,50.8626
2023-05-19T16:05:37.048Z,52.2379
2023-05-19T16:06:38.327Z,53.1265
2023-05-19T16:07:39.620Z,53.4220
2023-05-19T16:08:40.964Z,53.8064
2023-05-19T16:09:42.260Z,54.2624
2023-05-19T16:10:43.526Z,55.5271
2023-05-19T16:11:44.830Z,57.4513
2023-05-19T16:12:46.147Z,57.5837
2023-05-19T16:13:47.426Z,52.7833
2023-05-19T16:14:48.807Z,53.8289
2023-05-19T16:15:50.113Z,54.1499
2023-05-19T16:16:51.503Z,55.6144
2023-05-19T16:17:52.810Z,57.2869
2023-05-19T16:18:54.197Z,55.9076
2023-05-19T16:19:55.431Z,59.1305
2023-05-19T16:20:56.718Z,55.2583
2023-05-19T16:21:58.025Z,55.8336
2023-05-19T16:22:59.343Z,60.8274
2023-05-19T16:24:00.693Z,58.7895
2023-05-19T16:25:01.941Z,58.5245
2023-05-19T16:26:03.242Z,54.3655
2023-05-19T16:27:04.550Z,54.4283
2023-05-19T16:28:05.907Z,56.5089
2023-05-19T16:29:07.172Z,58.9564
2023-05-19T16:30:08.494Z,59.7721
2023-05-19T16:31:09.760Z,60.1596
2023-05-19T16:32:11.083Z,57.1905
2023-05-19T16:33:12.444Z,58.0892
2023-05-19T16:34:13.734Z,56.9294
2023-05-19T16:35:15.048Z,60.6266
2023-05-19T16:36:16.304Z,58.4059
2023-05-19T16:37:17.639Z,57.5028
2023-05-19T16:38:18.914Z,57.1909
2023-05-19T16:39:20.242Z,53.8457
2023-05-19T16:40:21.497Z,59.1755
2023-05-19T16:41:22.802Z,55.5359
2023-05-19T16:42:24.102Z,62.5003
2023-05-19T16:43:25.432Z,59.6768
2023-05-19T16:44:26.689Z,59.0971
2023-05-19T16:45:28.039Z,57.6996
2023-05-19T16:46:31.300Z,57.5291
2023-05-19T16:47:29.712Z,60.6996
2023-05-19T16:48:30.967Z,57.6958
2023-05-19T16:49:32.239Z,56.2905
2023-05-19T16:50:33.751Z,58.1154
2023-05-19T16:51:35.219Z,54.7773
2023-05-19T16:52:36.555Z,61.4170
2023-05-19T16:53:37.830Z,59.9412
2023-05-19T16:54:39.136Z,59.2454
2023-05-19T16:55:40.582Z,62.5183
2023-05-19T16:56:41.926Z,58.2246
2023-05-19T16:57:43.182Z,56.6940
2023-05-19T16:58:44.661Z,59.8667
2023-05-19T16:59:45.912Z,64.9628
2023-05-19T17:00:47.233Z,64.6450
2023-05-19T17:01:48.550Z,58.8141
2023-05-19T17:02:49.902Z,59.8141
2023-05-19T17:03:51.290Z,57.7606
2023-05-19T17:04:52.535Z,60.9228
2023-05-19T17:05:53.819Z,60.8137
2023-05-19T17:06:55.122Z,58.0310
2023-05-19T17:07:56.384Z,58.0746
2023-05-19T17:08:57.714Z,60.2538
2023-05-19T17:09:58.989Z,63.2724
2023-05-19T17:11:00.291Z,60.1768
2023-05-19T17:12:01.577Z,61.5650
2023-05-19T17:13:02.883Z,60.4814
2023-05-19T17:14:04.173Z,64.4385
2023-05-19T17:15:05.459Z,62.7637
2023-05-19T17:16:06.772Z,60.3953
2023-05-19T17:17:08.162Z,60.5821
2023-05-19T17:18:09.516Z,60.6378
2023-05-19T17:19:10.863Z,61.9248
2023-05-19T17:20:12.116Z,61.2238
2023-05-19T17:21:13.430Z,63.8668
2023-05-19T17:22:14.700Z,66.6480
2023-05-19T17:23:16.003Z,61.1359